sensor_id;sensor_type;location;lat;lon;timestamp;P1;durP1;ratioP1;P2;durP2;ratioP2
2576;SDS011;1298;51.252;6.802;2022-07-29T00:01:25;36.28;;;30.77;;
2576;SDS011;1298;51.252;6.802;2022-07-29T00:04:10;36.17;;;30.67;;
2576;SDS011;1298;51.252;6.802;2022-07-29T00:06:56;35.95;;;30.83;;
2576;SDS011;1298;51.252;6.802;2022-07-29T00:09:41;34.38;;;30.20;;
2576;SDS011;1298;51.252;6.802;2022-07-29T00:12:27;33.60;;;30.20;;
2576;SDS011;1298;51.252;6.802;2022-07-29T00:15:13;33.05;;;29.58;;
2576;SDS011;1298;51.252;6.802;2022-07-29T00:18:00;34.40;;;30.67;;
2576;SDS011;1298;51.252;6.802;2022-07-29T00:20:46;33.42;;;29.83;;
2576;SDS011;1298;51.252;6.802;2022-07-29T00:23:31;34.53;;;30.80;;
2576;SDS011;1298;51.252;6.802;2022-07-29T00:26:17;33.50;;;29.90;;
2576;SDS011;1298;51.252;6.802;2022-07-29T00:29:03;33.15;;;29.55;;
2576;SDS011;1298;51.252;6.802;2022-07-29T00:31:49;33.10;;;29.50;;
2576;SDS011;1298;51.252;6.802;2022-07-29T00:34:36;33.40;;;29.85;;
2576;SDS011;1298;51.252;6.802;2022-07-29T00:37:39;33.03;;;29.52;;
2576;SDS011;1298;51.252;6.802;2022-07-29T00:40:24;32.83;;;29.33;;
2576;SDS011;1298;51.252;6.802;2022-07-29T00:43:10;34.22;;;30.67;;
2576;SDS011;1298;51.252;6.802;2022-07-29T00:45:56;32.67;;;29.23;;
2576;SDS011;1298;51.252;6.802;2022-07-29T00:48:42;32.85;;;29.35;;
2576;SDS011;1298;51.252;6.802;2022-07-29T00:51:29;32.55;;;29.05;;
2576;SDS011;1298;51.252;6.802;2022-07-29T00:54:16;32.90;;;29.40;;
2576;SDS011;1298;51.252;6.802;2022-07-29T00:57:01;32.80;;;29.40;;
2576;SDS011;1298;51.252;6.802;2022-07-29T00:59:47;32.92;;;29.50;;
2576;SDS011;1298;51.252;6.802;2022-07-29T01:02:32;33.25;;;29.65;;
2576;SDS011;1298;51.252;6.802;2022-07-29T01:05:19;33.55;;;29.85;;
2576;SDS011;1298;51.252;6.802;2022-07-29T01:08:07;33.25;;;29.75;;
2576;SDS011;1298;51.252;6.802;2022-07-29T01:10:53;33.85;;;30.25;;
2576;SDS011;1298;51.252;6.802;2022-07-29T01:13:39;32.20;;;28.80;;
2576;SDS011;1298;51.252;6.802;2022-07-29T01:16:28;31.92;;;28.63;;
2576;SDS011;1298;51.252;6.802;2022-07-29T01:19:28;31.75;;;28.55;;
2576;SDS011;1298;51.252;6.802;2022-07-29T01:22:31;33.10;;;29.60;;
2576;SDS011;1298;51.252;6.802;2022-07-29T01:25:32;32.25;;;29.00;;
2576;SDS011;1298;51.252;6.802;2022-07-29T01:28:53;31.55;;;28.35;;
2576;SDS011;1298;51.252;6.802;2022-07-29T01:31:51;31.35;;;28.25;;
2576;SDS011;1298;51.252;6.802;2022-07-29T01:34:44;33.63;;;30.23;;
2576;SDS011;1298;51.252;6.802;2022-07-29T01:37:36;32.22;;;29.02;;
2576;SDS011;1298;51.252;6.802;2022-07-29T01:40:27;32.97;;;29.58;;
2576;SDS011;1298;51.252;6.802;2022-07-29T01:43:18;29.58;;;26.98;;
2576;SDS011;1298;51.252;6.802;2022-07-29T01:46:11;28.75;;;26.25;;
2576;SDS011;1298;51.252;6.802;2022-07-29T01:49:00;27.10;;;24.90;;
2576;SDS011;1298;51.252;6.802;2022-07-29T01:51:51;26.50;;;24.40;;
2576;SDS011;1298;51.252;6.802;2022-07-29T01:54:41;26.45;;;24.30;;
2576;SDS011;1298;51.252;6.802;2022-07-29T01:57:30;30.50;;;27.60;;
2576;SDS011;1298;51.252;6.802;2022-07-29T02:00:19;26.98;;;24.77;;
2576;SDS011;1298;51.252;6.802;2022-07-29T02:03:08;28.70;;;26.20;;
2576;SDS011;1298;51.252;6.802;2022-07-29T02:05:56;27.35;;;25.05;;
2576;SDS011;1298;51.252;6.802;2022-07-29T02:08:43;26.35;;;24.25;;
2576;SDS011;1298;51.252;6.802;2022-07-29T02:11:30;27.50;;;25.20;;
2576;SDS011;1298;51.252;6.802;2022-07-29T02:14:19;26.55;;;24.35;;
2576;SDS011;1298;51.252;6.802;2022-07-29T02:17:05;27.38;;;25.10;;
2576;SDS011;1298;51.252;6.802;2022-07-29T02:19:53;27.15;;;25.02;;
2576;SDS011;1298;51.252;6.802;2022-07-29T02:22:41;25.75;;;23.75;;
2576;SDS011;1298;51.252;6.802;2022-07-29T02:25:29;26.35;;;24.25;;
2576;SDS011;1298;51.252;6.802;2022-07-29T02:28:16;26.20;;;24.10;;
2576;SDS011;1298;51.252;6.802;2022-07-29T02:31:03;26.38;;;24.30;;
2576;SDS011;1298;51.252;6.802;2022-07-29T02:33:50;26.73;;;24.63;;
2576;SDS011;1298;51.252;6.802;2022-07-29T02:36:38;27.80;;;25.60;;
2576;SDS011;1298;51.252;6.802;2022-07-29T02:39:24;26.80;;;24.60;;
2576;SDS011;1298;51.252;6.802;2022-07-29T02:42:14;28.83;;;26.58;;
2576;SDS011;1298;51.252;6.802;2022-07-29T02:45:01;26.38;;;24.38;;
2576;SDS011;1298;51.252;6.802;2022-07-29T02:47:47;23.80;;;22.10;;
2576;SDS011;1298;51.252;6.802;2022-07-29T02:50:37;24.55;;;22.75;;
2576;SDS011;1298;51.252;6.802;2022-07-29T02:53:27;26.73;;;24.73;;
2576;SDS011;1298;51.252;6.802;2022-07-29T02:56:16;26.98;;;24.90;;
2576;SDS011;1298;51.252;6.802;2022-07-29T02:59:08;26.98;;;24.88;;
2576;SDS011;1298;51.252;6.802;2022-07-29T03:04:27;28.13;;;25.83;;
2576;SDS011;1298;51.252;6.802;2022-07-29T03:07:15;27.52;;;25.23;;
2576;SDS011;1298;51.252;6.802;2022-07-29T03:10:06;26.48;;;24.38;;
2576;SDS011;1298;51.252;6.802;2022-07-29T03:12:53;27.40;;;25.15;;
2576;SDS011;1298;51.252;6.802;2022-07-29T03:15:39;29.25;;;26.75;;
2576;SDS011;1298;51.252;6.802;2022-07-29T03:18:27;30.13;;;27.67;;
2576;SDS011;1298;51.252;6.802;2022-07-29T03:21:13;30.95;;;28.55;;
2576;SDS011;1298;51.252;6.802;2022-07-29T03:23:58;28.55;;;26.30;;
2576;SDS011;1298;51.252;6.802;2022-07-29T03:26:45;27.35;;;25.15;;
2576;SDS011;1298;51.252;6.802;2022-07-29T03:29:30;25.92;;;23.92;;
2576;SDS011;1298;51.252;6.802;2022-07-29T03:32:16;26.15;;;24.05;;
2576;SDS011;1298;51.252;6.802;2022-07-29T03:35:02;27.77;;;25.58;;
2576;SDS011;1298;51.252;6.802;2022-07-29T03:37:49;28.45;;;26.25;;
2576;SDS011;1298;51.252;6.802;2022-07-29T03:40:35;28.85;;;26.65;;
2576;SDS011;1298;51.252;6.802;2022-07-29T03:43:26;25.60;;;23.60;;
2576;SDS011;1298;51.252;6.802;2022-07-29T03:46:16;24.20;;;22.50;;
2576;SDS011;1298;51.252;6.802;2022-07-29T03:49:05;25.98;;;24.05;;
2576;SDS011;1298;51.252;6.802;2022-07-29T03:51:53;22.92;;;21.42;;
2576;SDS011;1298;51.252;6.802;2022-07-29T03:54:39;21.55;;;20.25;;
2576;SDS011;1298;51.252;6.802;2022-07-29T03:57:25;20.67;;;19.48;;
2576;SDS011;1298;51.252;6.802;2022-07-29T04:00:14;27.10;;;25.15;;
2576;SDS011;1298;51.252;6.802;2022-07-29T04:03:00;26.25;;;24.25;;
2576;SDS011;1298;51.252;6.802;2022-07-29T04:05:56;25.55;;;23.65;;
2576;SDS011;1298;51.252;6.802;2022-07-29T04:08:43;24.17;;;22.48;;
2576;SDS011;1298;51.252;6.802;2022-07-29T04:11:29;22.95;;;21.40;;
2576;SDS011;1298;51.252;6.802;2022-07-29T04:14:14;23.60;;;22.00;;
2576;SDS011;1298;51.252;6.802;2022-07-29T04:17:02;22.98;;;21.45;;
2576;SDS011;1298;51.252;6.802;2022-07-29T04:19:48;24.73;;;23.13;;
2576;SDS011;1298;51.252;6.802;2022-07-29T04:22:33;23.08;;;21.48;;
2576;SDS011;1298;51.252;6.802;2022-07-29T04:25:19;21.40;;;20.00;;
2576;SDS011;1298;51.252;6.802;2022-07-29T04:28:04;23.52;;;22.02;;
2576;SDS011;1298;51.252;6.802;2022-07-29T04:30:50;22.73;;;21.23;;
2576;SDS011;1298;51.252;6.802;2022-07-29T04:33:37;23.20;;;21.60;;
2576;SDS011;1298;51.252;6.802;2022-07-29T04:36:22;21.30;;;20.00;;
2576;SDS011;1298;51.252;6.802;2022-07-29T04:39:08;23.85;;;22.45;;
2576;SDS011;1298;51.252;6.802;2022-07-29T04:41:53;21.95;;;20.55;;
2576;SDS011;1298;51.252;6.802;2022-07-29T04:44:39;22.80;;;21.40;;
2576;SDS011;1298;51.252;6.802;2022-07-29T04:47:24;21.77;;;20.48;;
2576;SDS011;1298;51.252;6.802;2022-07-29T04:50:11;21.55;;;20.25;;
2576;SDS011;1298;51.252;6.802;2022-07-29T04:52:56;22.23;;;20.92;;
2576;SDS011;1298;51.252;6.802;2022-07-29T04:55:43;21.25;;;20.05;;
2576;SDS011;1298;51.252;6.802;2022-07-29T04:58:29;22.45;;;21.15;;
2576;SDS011;1298;51.252;6.802;2022-07-29T05:01:14;21.33;;;20.13;;
2576;SDS011;1298;51.252;6.802;2022-07-29T05:04:00;19.95;;;18.85;;
2576;SDS011;1298;51.252;6.802;2022-07-29T05:06:47;20.40;;;19.30;;
2576;SDS011;1298;51.252;6.802;2022-07-29T05:09:32;20.02;;;19.02;;
2576;SDS011;1298;51.252;6.802;2022-07-29T05:12:18;20.20;;;19.20;;
2576;SDS011;1298;51.252;6.802;2022-07-29T05:15:04;19.45;;;18.45;;
2576;SDS011;1298;51.252;6.802;2022-07-29T05:17:51;21.05;;;19.95;;
2576;SDS011;1298;51.252;6.802;2022-07-29T05:20:36;20.48;;;19.38;;
2576;SDS011;1298;51.252;6.802;2022-07-29T05:23:23;19.90;;;18.90;;
2576;SDS011;1298;51.252;6.802;2022-07-29T05:26:09;21.30;;;20.20;;
2576;SDS011;1298;51.252;6.802;2022-07-29T05:28:54;19.27;;;18.38;;
2576;SDS011;1298;51.252;6.802;2022-07-29T05:31:40;19.42;;;18.52;;
2576;SDS011;1298;51.252;6.802;2022-07-29T05:34:25;21.02;;;20.02;;
2576;SDS011;1298;51.252;6.802;2022-07-29T05:37:11;18.75;;;17.85;;
2576;SDS011;1298;51.252;6.802;2022-07-29T05:39:58;21.45;;;20.45;;
2576;SDS011;1298;51.252;6.802;2022-07-29T05:42:44;19.20;;;18.30;;
2576;SDS011;1298;51.252;6.802;2022-07-29T05:45:29;19.98;;;18.98;;
2576;SDS011;1298;51.252;6.802;2022-07-29T05:48:15;20.35;;;19.35;;
2576;SDS011;1298;51.252;6.802;2022-07-29T05:51:00;19.80;;;18.88;;
2576;SDS011;1298;51.252;6.802;2022-07-29T05:53:46;22.08;;;20.98;;
2576;SDS011;1298;51.252;6.802;2022-07-29T05:56:33;19.20;;;18.30;;
2576;SDS011;1298;51.252;6.802;2022-07-29T05:59:20;20.17;;;19.17;;
2576;SDS011;1298;51.252;6.802;2022-07-29T06:02:05;19.27;;;18.38;;
2576;SDS011;1298;51.252;6.802;2022-07-29T06:04:51;20.00;;;19.00;;
2576;SDS011;1298;51.252;6.802;2022-07-29T06:07:37;21.10;;;20.10;;
2576;SDS011;1298;51.252;6.802;2022-07-29T06:10:22;19.45;;;18.55;;
2576;SDS011;1298;51.252;6.802;2022-07-29T06:13:09;19.65;;;18.75;;
2576;SDS011;1298;51.252;6.802;2022-07-29T06:15:55;19.35;;;18.45;;
2576;SDS011;1298;51.252;6.802;2022-07-29T06:18:40;21.10;;;20.10;;
2576;SDS011;1298;51.252;6.802;2022-07-29T06:21:26;19.63;;;18.73;;
2576;SDS011;1298;51.252;6.802;2022-07-29T06:24:12;18.45;;;17.65;;
2576;SDS011;1298;51.252;6.802;2022-07-29T06:26:58;18.20;;;17.40;;
2576;SDS011;1298;51.252;6.802;2022-07-29T06:29:45;19.65;;;18.75;;
2576;SDS011;1298;51.252;6.802;2022-07-29T06:32:30;19.20;;;18.33;;
2576;SDS011;1298;51.252;6.802;2022-07-29T06:35:16;18.05;;;17.25;;
2576;SDS011;1298;51.252;6.802;2022-07-29T06:38:01;18.80;;;18.00;;
2576;SDS011;1298;51.252;6.802;2022-07-29T06:40:47;17.90;;;17.10;;
2576;SDS011;1298;51.252;6.802;2022-07-29T06:43:45;17.25;;;16.55;;
2576;SDS011;1298;51.252;6.802;2022-07-29T06:46:32;17.30;;;16.60;;
2576;SDS011;1298;51.252;6.802;2022-07-29T06:49:17;17.08;;;16.38;;
2576;SDS011;1298;51.252;6.802;2022-07-29T06:52:03;16.75;;;16.08;;
2576;SDS011;1298;51.252;6.802;2022-07-29T06:54:48;17.02;;;16.40;;
2576;SDS011;1298;51.252;6.802;2022-07-29T06:57:34;15.30;;;14.70;;
2576;SDS011;1298;51.252;6.802;2022-07-29T07:00:19;14.85;;;14.35;;
2576;SDS011;1298;51.252;6.802;2022-07-29T07:03:06;13.43;;;12.93;;
2576;SDS011;1298;51.252;6.802;2022-07-29T07:05:52;13.45;;;12.95;;
2576;SDS011;1298;51.252;6.802;2022-07-29T07:08:38;14.35;;;13.85;;
2576;SDS011;1298;51.252;6.802;2022-07-29T07:11:23;11.45;;;11.13;;
2576;SDS011;1298;51.252;6.802;2022-07-29T07:14:09;9.75;;;9.45;;
2576;SDS011;1298;51.252;6.802;2022-07-29T07:16:54;7.72;;;7.53;;
2576;SDS011;1298;51.252;6.802;2022-07-29T07:19:41;1.42;;;1.42;;
2576;SDS011;1298;51.252;6.802;2022-07-29T07:22:27;1.55;;;1.55;;
2576;SDS011;1298;51.252;6.802;2022-07-29T07:25:13;1.75;;;1.75;;
2576;SDS011;1298;51.252;6.802;2022-07-29T07:27:58;2.00;;;1.92;;
2576;SDS011;1298;51.252;6.802;2022-07-29T07:30:44;1.17;;;1.17;;
2576;SDS011;1298;51.252;6.802;2022-07-29T07:33:30;27.80;;;25.52;;
2576;SDS011;1298;51.252;6.802;2022-07-29T07:36:16;31.55;;;28.80;;
2576;SDS011;1298;51.252;6.802;2022-07-29T07:39:02;30.15;;;27.75;;
2576;SDS011;1298;51.252;6.802;2022-07-29T07:41:48;28.38;;;26.10;;
2576;SDS011;1298;51.252;6.802;2022-07-29T07:44:34;31.00;;;28.50;;
2576;SDS011;1298;51.252;6.802;2022-07-29T07:47:19;28.77;;;26.67;;
2576;SDS011;1298;51.252;6.802;2022-07-29T07:50:08;25.17;;;23.38;;
2576;SDS011;1298;51.252;6.802;2022-07-29T07:52:56;23.15;;;21.60;;
2576;SDS011;1298;51.252;6.802;2022-07-29T07:55:42;29.80;;;27.30;;
2576;SDS011;1298;51.252;6.802;2022-07-29T07:58:28;32.35;;;29.55;;
2576;SDS011;1298;51.252;6.802;2022-07-29T08:01:13;31.08;;;28.27;;
2576;SDS011;1298;51.252;6.802;2022-07-29T08:04:02;31.27;;;28.50;;
2576;SDS011;1298;51.252;6.802;2022-07-29T08:06:48;26.52;;;24.63;;
2576;SDS011;1298;51.252;6.802;2022-07-29T08:09:36;25.90;;;24.10;;
2576;SDS011;1298;51.252;6.802;2022-07-29T08:12:21;24.55;;;22.85;;
2576;SDS011;1298;51.252;6.802;2022-07-29T08:15:07;26.25;;;24.35;;
2576;SDS011;1298;51.252;6.802;2022-07-29T08:17:53;25.90;;;24.00;;
2576;SDS011;1298;51.252;6.802;2022-07-29T08:20:38;25.17;;;23.38;;
2576;SDS011;1298;51.252;6.802;2022-07-29T08:23:24;24.77;;;23.05;;
2576;SDS011;1298;51.252;6.802;2022-07-29T08:26:12;25.25;;;23.45;;
2576;SDS011;1298;51.252;6.802;2022-07-29T08:28:58;25.02;;;23.33;;
2576;SDS011;1298;51.252;6.802;2022-07-29T08:31:43;25.05;;;23.35;;
2576;SDS011;1298;51.252;6.802;2022-07-29T08:34:29;25.77;;;23.85;;
2576;SDS011;1298;51.252;6.802;2022-07-29T08:37:15;26.73;;;24.95;;
2576;SDS011;1298;51.252;6.802;2022-07-29T08:40:01;25.33;;;23.65;;
2576;SDS011;1298;51.252;6.802;2022-07-29T08:42:48;23.55;;;22.05;;
2576;SDS011;1298;51.252;6.802;2022-07-29T08:45:41;23.05;;;21.55;;
2576;SDS011;1298;51.252;6.802;2022-07-29T08:48:28;24.02;;;22.42;;
2576;SDS011;1298;51.252;6.802;2022-07-29T08:51:15;20.80;;;19.50;;
2576;SDS011;1298;51.252;6.802;2022-07-29T08:54:01;22.05;;;20.75;;
2576;SDS011;1298;51.252;6.802;2022-07-29T08:56:48;22.10;;;20.77;;
2576;SDS011;1298;51.252;6.802;2022-07-29T08:59:36;21.20;;;19.98;;
2576;SDS011;1298;51.252;6.802;2022-07-29T09:02:24;19.80;;;18.70;;
2576;SDS011;1298;51.252;6.802;2022-07-29T09:05:14;20.17;;;19.08;;
2576;SDS011;1298;51.252;6.802;2022-07-29T09:08:00;25.30;;;23.50;;
2576;SDS011;1298;51.252;6.802;2022-07-29T09:10:46;28.25;;;26.05;;
2576;SDS011;1298;51.252;6.802;2022-07-29T09:13:31;28.38;;;26.17;;
2576;SDS011;1298;51.252;6.802;2022-07-29T09:16:18;27.05;;;24.95;;
2576;SDS011;1298;51.252;6.802;2022-07-29T09:19:05;25.75;;;23.95;;
2576;SDS011;1298;51.252;6.802;2022-07-29T09:22:05;24.90;;;23.20;;
2576;SDS011;1298;51.252;6.802;2022-07-29T09:24:53;26.98;;;24.98;;
2576;SDS011;1298;51.252;6.802;2022-07-29T09:27:38;30.15;;;27.75;;
2576;SDS011;1298;51.252;6.802;2022-07-29T09:30:24;33.28;;;30.20;;
2576;SDS011;1298;51.252;6.802;2022-07-29T09:33:11;35.50;;;31.90;;
2576;SDS011;1298;51.252;6.802;2022-07-29T09:36:00;37.78;;;33.97;;
2576;SDS011;1298;51.252;6.802;2022-07-29T09:38:56;37.45;;;33.65;;
2576;SDS011;1298;51.252;6.802;2022-07-29T09:41:43;35.28;;;31.60;;
2576;SDS011;1298;51.252;6.802;2022-07-29T09:44:43;35.13;;;31.73;;
2576;SDS011;1298;51.252;6.802;2022-07-29T09:47:40;28.33;;;26.13;;
2576;SDS011;1298;51.252;6.802;2022-07-29T09:50:35;27.48;;;25.35;;
2576;SDS011;1298;51.252;6.802;2022-07-29T09:53:32;27.13;;;25.02;;
2576;SDS011;1298;51.252;6.802;2022-07-29T09:56:18;27.52;;;25.33;;
2576;SDS011;1298;51.252;6.802;2022-07-29T09:59:04;28.40;;;26.20;;
2576;SDS011;1298;51.252;6.802;2022-07-29T10:01:51;27.40;;;25.20;;
2576;SDS011;1298;51.252;6.802;2022-07-29T10:04:37;28.98;;;26.77;;
2576;SDS011;1298;51.252;6.802;2022-07-29T10:07:25;28.70;;;26.50;;
2576;SDS011;1298;51.252;6.802;2022-07-29T10:10:17;28.73;;;26.55;;
2576;SDS011;1298;51.252;6.802;2022-07-29T10:13:04;27.75;;;25.65;;
2576;SDS011;1298;51.252;6.802;2022-07-29T10:15:51;28.17;;;26.08;;
2576;SDS011;1298;51.252;6.802;2022-07-29T10:18:37;28.80;;;26.63;;
2576;SDS011;1298;51.252;6.802;2022-07-29T10:21:23;28.58;;;26.38;;
2576;SDS011;1298;51.252;6.802;2022-07-29T10:24:11;28.67;;;26.48;;
2576;SDS011;1298;51.252;6.802;2022-07-29T10:26:58;26.42;;;24.42;;
2576;SDS011;1298;51.252;6.802;2022-07-29T10:29:44;28.00;;;25.90;;
2576;SDS011;1298;51.252;6.802;2022-07-29T10:32:40;27.95;;;25.85;;
2576;SDS011;1298;51.252;6.802;2022-07-29T10:35:44;26.80;;;24.80;;
2576;SDS011;1298;51.252;6.802;2022-07-29T10:38:42;27.65;;;25.55;;
2576;SDS011;1298;51.252;6.802;2022-07-29T10:44:40;26.85;;;24.85;;
2576;SDS011;1298;51.252;6.802;2022-07-29T10:47:27;26.67;;;24.67;;
2576;SDS011;1298;51.252;6.802;2022-07-29T10:50:13;26.52;;;24.58;;
2576;SDS011;1298;51.252;6.802;2022-07-29T10:52:59;26.30;;;24.35;;
2576;SDS011;1298;51.252;6.802;2022-07-29T10:55:44;26.48;;;24.52;;
2576;SDS011;1298;51.252;6.802;2022-07-29T10:58:34;28.55;;;26.45;;
2576;SDS011;1298;51.252;6.802;2022-07-29T11:01:27;26.60;;;24.60;;
2576;SDS011;1298;51.252;6.802;2022-07-29T11:04:14;28.65;;;26.55;;
2576;SDS011;1298;51.252;6.802;2022-07-29T11:07:07;27.08;;;25.17;;
2576;SDS011;1298;51.252;6.802;2022-07-29T11:13:06;23.55;;;22.05;;
2576;SDS011;1298;51.252;6.802;2022-07-29T11:15:53;21.83;;;20.52;;
2576;SDS011;1298;51.252;6.802;2022-07-29T11:21:59;19.90;;;18.80;;
2576;SDS011;1298;51.252;6.802;2022-07-29T11:24:44;20.60;;;19.40;;
2576;SDS011;1298;51.252;6.802;2022-07-29T11:27:50;22.35;;;21.05;;
2576;SDS011;1298;51.252;6.802;2022-07-29T11:30:47;20.30;;;19.20;;
2576;SDS011;1298;51.252;6.802;2022-07-29T11:33:35;19.75;;;18.65;;
2576;SDS011;1298;51.252;6.802;2022-07-29T11:36:21;20.48;;;19.30;;
2576;SDS011;1298;51.252;6.802;2022-07-29T11:39:25;20.10;;;19.00;;
2576;SDS011;1298;51.252;6.802;2022-07-29T11:45:23;19.55;;;18.48;;
2576;SDS011;1298;51.252;6.802;2022-07-29T11:48:16;22.38;;;21.17;;
2576;SDS011;1298;51.252;6.802;2022-07-29T11:51:04;19.55;;;18.45;;
2576;SDS011;1298;51.252;6.802;2022-07-29T11:53:55;20.75;;;19.55;;
2576;SDS011;1298;51.252;6.802;2022-07-29T11:56:41;19.77;;;18.67;;
2576;SDS011;1298;51.252;6.802;2022-07-29T11:59:29;19.85;;;18.77;;
2576;SDS011;1298;51.252;6.802;2022-07-29T12:02:16;19.83;;;18.73;;
2576;SDS011;1298;51.252;6.802;2022-07-29T12:05:01;19.52;;;18.52;;
2576;SDS011;1298;51.252;6.802;2022-07-29T12:07:49;20.40;;;19.30;;
2576;SDS011;1298;51.252;6.802;2022-07-29T12:10:34;19.10;;;18.10;;
2576;SDS011;1298;51.252;6.802;2022-07-29T12:13:20;19.65;;;18.65;;
2576;SDS011;1298;51.252;6.802;2022-07-29T12:16:07;18.35;;;17.55;;
2576;SDS011;1298;51.252;6.802;2022-07-29T12:18:57;16.45;;;15.75;;
2576;SDS011;1298;51.252;6.802;2022-07-29T12:21:44;16.67;;;15.98;;
2576;SDS011;1298;51.252;6.802;2022-07-29T12:24:43;17.80;;;17.00;;
2576;SDS011;1298;51.252;6.802;2022-07-29T12:27:29;17.23;;;16.48;;
2576;SDS011;1298;51.252;6.802;2022-07-29T12:30:15;16.15;;;15.45;;
2576;SDS011;1298;51.252;6.802;2022-07-29T12:33:01;23.80;;;22.15;;
2576;SDS011;1298;51.252;6.802;2022-07-29T12:35:54;30.60;;;27.98;;
2576;SDS011;1298;51.252;6.802;2022-07-29T12:38:42;34.05;;;30.85;;
2576;SDS011;1298;51.252;6.802;2022-07-29T12:41:29;33.25;;;30.02;;
2576;SDS011;1298;51.252;6.802;2022-07-29T12:44:15;34.33;;;30.75;;
2576;SDS011;1298;51.252;6.802;2022-07-29T12:47:01;35.55;;;31.90;;
2576;SDS011;1298;51.252;6.802;2022-07-29T12:49:47;31.13;;;28.25;;
2576;SDS011;1298;51.252;6.802;2022-07-29T12:52:34;32.60;;;29.30;;
2576;SDS011;1298;51.252;6.802;2022-07-29T12:58:35;36.15;;;32.55;;
2576;SDS011;1298;51.252;6.802;2022-07-29T13:01:21;35.80;;;32.20;;
2576;SDS011;1298;51.252;6.802;2022-07-29T13:04:06;35.58;;;32.08;;
2576;SDS011;1298;51.252;6.802;2022-07-29T13:06:58;33.58;;;30.17;;
2576;SDS011;1298;51.252;6.802;2022-07-29T13:09:44;36.40;;;32.88;;
2576;SDS011;1298;51.252;6.802;2022-07-29T13:12:30;35.58;;;31.98;;
2576;SDS011;1298;51.252;6.802;2022-07-29T13:15:17;36.42;;;32.72;;
2576;SDS011;1298;51.252;6.802;2022-07-29T13:18:02;39.55;;;35.55;;
2576;SDS011;1298;51.252;6.802;2022-07-29T13:20:48;36.05;;;32.25;;
2576;SDS011;1298;51.252;6.802;2022-07-29T13:23:34;35.95;;;32.05;;
2576;SDS011;1298;51.252;6.802;2022-07-29T13:26:19;34.58;;;30.98;;
2576;SDS011;1298;51.252;6.802;2022-07-29T13:29:05;33.72;;;30.23;;
2576;SDS011;1298;51.252;6.802;2022-07-29T13:31:52;36.40;;;32.60;;
2576;SDS011;1298;51.252;6.802;2022-07-29T13:34:37;35.65;;;31.85;;
2576;SDS011;1298;51.252;6.802;2022-07-29T13:37:23;35.22;;;31.42;;
2576;SDS011;1298;51.252;6.802;2022-07-29T13:40:10;35.80;;;31.90;;
2576;SDS011;1298;51.252;6.802;2022-07-29T13:42:57;34.50;;;30.80;;
2576;SDS011;1298;51.252;6.802;2022-07-29T13:45:43;35.30;;;31.52;;
2576;SDS011;1298;51.252;6.802;2022-07-29T13:48:30;35.20;;;31.40;;
2576;SDS011;1298;51.252;6.802;2022-07-29T13:51:15;34.75;;;31.05;;
2576;SDS011;1298;51.252;6.802;2022-07-29T13:54:01;36.38;;;32.47;;
2576;SDS011;1298;51.252;6.802;2022-07-29T13:56:46;35.15;;;31.35;;
2576;SDS011;1298;51.252;6.802;2022-07-29T13:59:32;36.25;;;32.35;;
2576;SDS011;1298;51.252;6.802;2022-07-29T14:02:17;36.10;;;32.20;;
2576;SDS011;1298;51.252;6.802;2022-07-29T14:05:05;35.33;;;31.42;;
2576;SDS011;1298;51.252;6.802;2022-07-29T14:07:51;36.75;;;32.85;;
2576;SDS011;1298;51.252;6.802;2022-07-29T14:10:36;37.03;;;33.13;;
2576;SDS011;1298;51.252;6.802;2022-07-29T14:13:22;35.05;;;31.25;;
2576;SDS011;1298;51.252;6.802;2022-07-29T14:16:07;36.35;;;32.45;;
2576;SDS011;1298;51.252;6.802;2022-07-29T14:18:53;36.00;;;32.00;;
2576;SDS011;1298;51.252;6.802;2022-07-29T14:21:40;33.85;;;30.15;;
2576;SDS011;1298;51.252;6.802;2022-07-29T14:24:25;32.50;;;29.30;;
2576;SDS011;1298;51.252;6.802;2022-07-29T14:27:11;32.42;;;29.33;;
2576;SDS011;1298;51.252;6.802;2022-07-29T14:29:56;30.48;;;28.08;;
2576;SDS011;1298;51.252;6.802;2022-07-29T14:32:42;36.20;;;32.60;;
2576;SDS011;1298;51.252;6.802;2022-07-29T14:35:27;36.53;;;32.83;;
2576;SDS011;1298;51.252;6.802;2022-07-29T14:38:15;37.55;;;33.65;;
2576;SDS011;1298;51.252;6.802;2022-07-29T14:41:00;38.30;;;34.15;;
2576;SDS011;1298;51.252;6.802;2022-07-29T14:43:46;36.22;;;32.33;;
2576;SDS011;1298;51.252;6.802;2022-07-29T14:46:32;35.83;;;32.03;;
2576;SDS011;1298;51.252;6.802;2022-07-29T14:49:17;34.17;;;30.67;;
2576;SDS011;1298;51.252;6.802;2022-07-29T14:52:02;33.72;;;30.23;;
2576;SDS011;1298;51.252;6.802;2022-07-29T14:54:50;35.28;;;31.67;;
2576;SDS011;1298;51.252;6.802;2022-07-29T14:57:35;34.00;;;30.40;;
2576;SDS011;1298;51.252;6.802;2022-07-29T15:00:21;34.95;;;31.25;;
2576;SDS011;1298;51.252;6.802;2022-07-29T15:03:06;33.63;;;30.02;;
2576;SDS011;1298;51.252;6.802;2022-07-29T15:05:53;34.38;;;30.77;;
2576;SDS011;1298;51.252;6.802;2022-07-29T15:08:39;33.53;;;29.92;;
2576;SDS011;1298;51.252;6.802;2022-07-29T15:11:29;33.22;;;29.83;;
2576;SDS011;1298;51.252;6.802;2022-07-29T15:14:14;33.92;;;30.33;;
2576;SDS011;1298;51.252;6.802;2022-07-29T15:17:00;33.25;;;29.75;;
2576;SDS011;1298;51.252;6.802;2022-07-29T15:19:45;34.45;;;30.83;;
2576;SDS011;1298;51.252;6.802;2022-07-29T15:22:31;33.70;;;30.20;;
2576;SDS011;1298;51.252;6.802;2022-07-29T15:25:17;32.47;;;29.17;;
2576;SDS011;1298;51.252;6.802;2022-07-29T15:28:04;32.58;;;29.48;;
2576;SDS011;1298;51.252;6.802;2022-07-29T15:30:51;28.35;;;25.98;;
2576;SDS011;1298;51.252;6.802;2022-07-29T15:33:38;31.40;;;28.40;;
2576;SDS011;1298;51.252;6.802;2022-07-29T15:36:24;32.00;;;28.80;;
2576;SDS011;1298;51.252;6.802;2022-07-29T15:39:09;30.67;;;27.75;;
2576;SDS011;1298;51.252;6.802;2022-07-29T15:41:55;31.02;;;28.15;;
2576;SDS011;1298;51.252;6.802;2022-07-29T15:44:42;30.08;;;27.48;;
2576;SDS011;1298;51.252;6.802;2022-07-29T15:47:27;28.42;;;25.92;;
2576;SDS011;1298;51.252;6.802;2022-07-29T15:50:13;27.60;;;25.30;;
2576;SDS011;1298;51.252;6.802;2022-07-29T15:52:59;27.50;;;25.30;;
2576;SDS011;1298;51.252;6.802;2022-07-29T15:55:45;25.60;;;23.70;;
2576;SDS011;1298;51.252;6.802;2022-07-29T15:58:31;25.05;;;23.35;;
2576;SDS011;1298;51.252;6.802;2022-07-29T16:01:20;24.08;;;22.48;;
2576;SDS011;1298;51.252;6.802;2022-07-29T16:04:12;24.15;;;22.55;;
2576;SDS011;1298;51.252;6.802;2022-07-29T16:07:00;24.40;;;22.75;;
2576;SDS011;1298;51.252;6.802;2022-07-29T16:09:46;23.88;;;22.25;;
2576;SDS011;1298;51.252;6.802;2022-07-29T16:12:32;24.30;;;22.60;;
2576;SDS011;1298;51.252;6.802;2022-07-29T16:15:17;23.25;;;21.75;;
2576;SDS011;1298;51.252;6.802;2022-07-29T16:18:04;22.50;;;21.10;;
2576;SDS011;1298;51.252;6.802;2022-07-29T16:20:51;22.40;;;21.00;;
2576;SDS011;1298;51.252;6.802;2022-07-29T16:23:36;19.90;;;18.80;;
2576;SDS011;1298;51.252;6.802;2022-07-29T16:26:22;20.95;;;19.75;;
2576;SDS011;1298;51.252;6.802;2022-07-29T16:29:08;20.20;;;19.08;;
2576;SDS011;1298;51.252;6.802;2022-07-29T16:31:54;20.02;;;18.85;;
2576;SDS011;1298;51.252;6.802;2022-07-29T16:34:42;21.15;;;19.95;;
2576;SDS011;1298;51.252;6.802;2022-07-29T16:37:27;20.98;;;19.77;;
2576;SDS011;1298;51.252;6.802;2022-07-29T16:40:15;21.90;;;20.60;;
2576;SDS011;1298;51.252;6.802;2022-07-29T16:43:01;21.10;;;19.90;;
2576;SDS011;1298;51.252;6.802;2022-07-29T16:45:46;21.08;;;19.88;;
2576;SDS011;1298;51.252;6.802;2022-07-29T16:48:32;22.30;;;21.10;;
2576;SDS011;1298;51.252;6.802;2022-07-29T16:51:19;20.60;;;19.40;;
2576;SDS011;1298;51.252;6.802;2022-07-29T16:54:04;21.80;;;20.50;;
2576;SDS011;1298;51.252;6.802;2022-07-29T16:56:51;23.20;;;21.70;;
2576;SDS011;1298;51.252;6.802;2022-07-29T16:59:36;23.23;;;21.83;;
2576;SDS011;1298;51.252;6.802;2022-07-29T17:02:22;22.20;;;20.90;;
2576;SDS011;1298;51.252;6.802;2022-07-29T17:05:08;18.80;;;17.80;;
2576;SDS011;1298;51.252;6.802;2022-07-29T17:07:56;19.42;;;18.42;;